Beef Island, British Virgin Islands

1:32 PM AST on December 22, 2014 (GMT -0400)
Beef I International | Change Station
CLOSE
Current Station
Airport
Location: Beef Island,
Elevation: 13 ft
Nearby Weather Stations

Elev 13 ft 18.44 °N, 64.54 °W | Updated 32 minutes ago

Partly Cloudy
Partly Cloudy
84 °F
Feels Like 91 °F
N
10
Wind Variable Wind from ESE

Today
High -- | Low -- °F
--% Chance of Precip.
Yesterday
High -- | Low -- °F
Precip. -- in
6:46 AM 5:47 PM
New Moon, 1% visible
Pressure 30.04 in
Visibility 6.2 miles
Clouds Few 2200 ft
Heat Index 91 °F
Dew Point 73 °F
Humidity 70%
Rainfall 0.00 in
Snow Depth Not available.
UV 6 out of 12
Pollen Not available.
Air Quality Not available.
Flu Activity Not available.
METAR TUPJ 221700Z 12009KT 9999 FEW022 29/23 Q1017

More Conditions Fewer Conditions

Pressure 30.04 in
Visibility 6.2 miles
Clouds Few 2200 ft
Heat Index 91 °F
Dew Point 73 °F
Humidity 70%
Rainfall 0.00 in
Snow Depth Not available.
UV 6 out of 12
Pollen Not available.
Air Quality Not available.
Flu Activity Not available.
METAR TUPJ 221700Z 12009KT 9999 FEW022 29/23 Q1017

More Conditions Fewer Conditions

10-Day Weather Forecast

Almanac

Astronomy

Dec. 22, 2014 Rise Set
Actual Time
Civil Twilight
Nautical Twilight
Astronomical Twilight
Moon
Length of Visible Light
Length of Day
Tomorrow will be .
, % of the Moon is Illuminated

Today's Extremes

Country Highs Country Lows

Community

WunderPhotos

Upload Photos

1,779,654 photos uploaded!

WunderBlogs® & News

Nearby

Air Quality

  Air Quality AQ Index Pollutant
Not available.

Snow Depth

Station Depth Elevation

Earthquake Activity

City Distance Mag. Time & Date
Minimum magnitude displayed is 2.5.

Coastal Water Temperatures

Place Temperature

Nearby Weather Stations